createdAt,value
2023-01-30T00:01:28.293Z,9.93
2023-01-30T00:03:56.048Z,17.73
2023-01-30T00:06:23.479Z,9.35
2023-01-30T00:08:51.191Z,10.50
2023-01-30T00:11:19.745Z,11.95
2023-01-30T00:13:49.504Z,9.25
2023-01-30T00:16:17.957Z,13.10
2023-01-30T00:18:45.343Z,8.30
2023-01-30T00:21:14.800Z,13.35
2023-01-30T00:23:42.817Z,10.52
2023-01-30T00:26:10.933Z,6.22
2023-01-30T00:28:39.818Z,6.13
2023-01-30T00:31:08.351Z,9.95
2023-01-30T00:33:37.869Z,10.07
2023-01-30T00:36:05.528Z,5.78
2023-01-30T00:38:33.114Z,27.13
2023-01-30T00:41:00.425Z,12.27
2023-01-30T00:43:46.711Z,9.60
2023-01-30T00:46:41.712Z,9.00
2023-01-30T00:49:08.958Z,12.90
2023-01-30T00:51:36.254Z,17.90
2023-01-30T00:54:03.945Z,10.73
2023-01-30T00:56:32.110Z,12.25
2023-01-30T00:58:59.428Z,13.73
2023-01-30T01:01:26.776Z,17.25
2023-01-30T01:03:54.026Z,7.07
2023-01-30T01:06:21.405Z,9.57
2023-01-30T01:08:48.720Z,6.38
2023-01-30T01:11:24.227Z,7.40
2023-01-30T01:13:57.354Z,5.90
2023-01-30T01:16:25.596Z,5.28
2023-01-30T01:18:53.726Z,10.60
2023-01-30T01:21:22.046Z,8.48
2023-01-30T01:23:54.097Z,7.22
2023-01-30T01:26:21.881Z,12.43
2023-01-30T01:28:49.910Z,16.52
2023-01-30T01:31:17.754Z,5.50
2023-01-30T01:33:45.229Z,26.85
2023-01-30T01:36:19.998Z,26.08
2023-01-30T01:38:56.993Z,12.30
2023-01-30T01:41:24.402Z,3.60
2023-01-30T01:44:07.464Z,8.45
2023-01-30T01:46:50.039Z,10.35
2023-01-30T01:49:20.289Z,11.60
2023-01-30T01:52:13.301Z,15.00
2023-01-30T01:54:40.575Z,4.70
2023-01-30T01:57:15.655Z,19.88
2023-01-30T01:59:49.754Z,13.90
2023-01-30T02:02:17.480Z,5.55
2023-01-30T02:05:02.270Z,4.85
2023-01-30T02:07:35.346Z,11.43
2023-01-30T02:10:04.594Z,8.18
2023-01-30T02:12:32.298Z,17.85
2023-01-30T02:15:00.705Z,14.68
2023-01-30T02:17:28.151Z,7.25
2023-01-30T02:20:06.576Z,9.18
2023-01-30T02:22:37.803Z,18.10
2023-01-30T02:25:08.302Z,12.07
2023-01-30T02:27:59.048Z,8.98
2023-01-30T02:31:03.973Z,18.70
2023-01-30T02:34:07.856Z,6.22
2023-01-30T02:37:06.249Z,16.70
2023-01-30T02:42:45.058Z,25.27
2023-01-30T02:45:21.174Z,13.57
2023-01-30T02:47:53.499Z,13.35
2023-01-30T02:50:26.667Z,16.92
2023-01-30T02:52:54.997Z,7.30
2023-01-30T02:55:25.519Z,14.55
2023-01-30T02:57:53.026Z,17.23
2023-01-30T03:00:33.053Z,15.10
2023-01-30T03:03:22.579Z,15.30
2023-01-30T03:06:14.983Z,12.20
2023-01-30T03:08:51.432Z,8.48
2023-01-30T03:11:24.402Z,12.27
2023-01-30T03:14:02.593Z,14.43
2023-01-30T03:16:39.597Z,14.30
2023-01-30T03:19:12.067Z,11.15
2023-01-30T03:21:44.771Z,15.70
2023-01-30T03:24:14.021Z,7.70
2023-01-30T03:26:56.126Z,16.27
2023-01-30T03:29:23.697Z,15.60
2023-01-30T03:31:51.773Z,9.40
2023-01-30T03:34:19.943Z,15.95
2023-01-30T03:36:47.864Z,11.93
2023-01-30T03:39:16.491Z,17.83
2023-01-30T03:41:44.508Z,13.90
2023-01-30T03:44:11.893Z,16.95
2023-01-30T03:46:42.340Z,26.70
2023-01-30T03:49:09.699Z,15.30
2023-01-30T03:51:37.283Z,18.23
2023-01-30T03:54:04.675Z,16.58
2023-01-30T03:56:32.563Z,12.38
2023-01-30T03:59:00.263Z,15.27
2023-01-30T04:01:36.348Z,14.15
2023-01-30T04:04:04.090Z,15.30
2023-01-30T04:06:31.436Z,11.93
2023-01-30T04:08:59.113Z,17.80
2023-01-30T04:11:45.631Z,11.88
2023-01-30T04:14:13.947Z,11.75
2023-01-30T04:17:04.061Z,10.23
2023-01-30T04:19:54.457Z,12.48
2023-01-30T04:22:22.169Z,15.02
2023-01-30T04:24:49.587Z,21.30
2023-01-30T04:27:17.153Z,12.38
2023-01-30T04:30:03.336Z,23.65
2023-01-30T04:32:30.776Z,10.18
2023-01-30T04:34:59.999Z,14.48
2023-01-30T04:37:27.848Z,17.58
2023-01-30T04:39:55.266Z,19.95
2023-01-30T04:42:26.866Z,17.92
2023-01-30T04:45:12.749Z,18.80
2023-01-30T04:47:40.257Z,24.60
2023-01-30T04:50:08.397Z,16.08
2023-01-30T04:52:38.966Z,13.30
2023-01-30T04:55:09.291Z,20.58
2023-01-30T04:57:37.428Z,19.83
2023-01-30T05:00:05.234Z,17.38
2023-01-30T05:02:36.016Z,30.35
2023-01-30T05:05:03.394Z,12.00
2023-01-30T05:07:30.707Z,24.40
2023-01-30T05:09:58.386Z,23.05
2023-01-30T05:12:25.636Z,12.35
2023-01-30T05:14:53.566Z,17.50
2023-01-30T05:17:22.561Z,27.00
2023-01-30T05:19:49.804Z,10.02
2023-01-30T05:22:17.179Z,11.70
2023-01-30T05:24:44.527Z,15.57
2023-01-30T05:27:11.906Z,22.48
2023-01-30T05:29:39.388Z,15.55
2023-01-30T05:32:06.897Z,12.77
2023-01-30T05:34:34.226Z,12.60
2023-01-30T05:37:01.616Z,12.50
2023-01-30T05:39:28.990Z,22.15
2023-01-30T05:41:56.235Z,17.88
2023-01-30T05:44:23.621Z,11.27
2023-01-30T05:46:51.420Z,15.23
2023-01-30T05:49:18.965Z,18.52
2023-01-30T05:51:46.348Z,16.40
2023-01-30T05:54:13.848Z,13.88
2023-01-30T05:56:41.184Z,22.63
2023-01-30T05:59:11.894Z,11.35
2023-01-30T06:01:39.233Z,11.43
2023-01-30T06:04:06.909Z,16.40
2023-01-30T06:06:34.314Z,17.50
2023-01-30T06:09:02.092Z,15.13
2023-01-30T06:11:30.160Z,11.35
2023-01-30T06:13:57.465Z,12.00
2023-01-30T06:16:25.077Z,16.55
2023-01-30T06:18:52.481Z,12.30
2023-01-30T06:21:19.753Z,13.88
2023-01-30T06:23:47.511Z,14.38
2023-01-30T06:26:14.972Z,13.05
2023-01-30T06:28:42.826Z,13.43
2023-01-30T06:31:10.594Z,21.05
2023-01-30T06:33:38.008Z,12.95
2023-01-30T06:36:05.724Z,13.02
2023-01-30T06:38:33.047Z,12.35
2023-01-30T06:41:00.621Z,24.05
2023-01-30T06:43:29.068Z,27.92
2023-01-30T06:45:59.367Z,23.58
2023-01-30T06:48:26.793Z,14.43
2023-01-30T06:50:54.534Z,20.48
2023-01-30T06:53:25.272Z,19.52
2023-01-30T06:55:52.546Z,14.10
2023-01-30T06:58:19.897Z,20.15
2023-01-30T07:00:47.329Z,16.80
2023-01-30T07:03:17.118Z,18.00
2023-01-30T07:05:46.282Z,24.17
2023-01-30T07:08:14.966Z,29.00
2023-01-30T07:10:43.545Z,14.23
2023-01-30T07:13:11.662Z,15.85
2023-01-30T07:15:39.187Z,24.52
2023-01-30T07:18:06.674Z,26.25
2023-01-30T07:20:34.194Z,20.75
2023-01-30T07:23:02.004Z,16.75
2023-01-30T07:25:29.599Z,25.27
2023-01-30T07:28:01.862Z,20.73
2023-01-30T07:30:32.280Z,18.95
2023-01-30T07:33:00.352Z,17.15
2023-01-30T07:35:31.583Z,16.65
2023-01-30T07:37:59.965Z,22.23
2023-01-30T07:40:29.145Z,16.63
2023-01-30T07:43:03.831Z,15.60
2023-01-30T07:45:45.434Z,20.20
2023-01-30T07:48:18.273Z,18.70
2023-01-30T07:50:46.267Z,19.65
2023-01-30T07:53:15.845Z,15.02
2023-01-30T07:55:43.626Z,16.38
2023-01-30T07:58:14.560Z,6.00
2023-01-30T08:00:42.068Z,20.75
2023-01-30T08:03:17.033Z,17.25
2023-01-30T08:05:47.057Z,17.48
2023-01-30T08:08:15.090Z,11.80
2023-01-30T08:10:43.016Z,18.65
2023-01-30T08:13:10.795Z,10.45
2023-01-30T08:15:38.259Z,10.23
2023-01-30T08:18:07.343Z,15.23
2023-01-30T08:20:35.173Z,21.63
2023-01-30T08:23:03.114Z,22.88
2023-01-30T08:25:31.369Z,15.82
2023-01-30T08:28:00.312Z,15.95
2023-01-30T08:30:29.575Z,20.25
2023-01-30T08:33:00.490Z,17.33
2023-01-30T08:35:28.059Z,26.08
2023-01-30T08:37:55.416Z,13.32
2023-01-30T08:40:22.781Z,19.70
2023-01-30T08:42:50.059Z,27.83
2023-01-30T08:45:19.504Z,17.75
2023-01-30T08:47:46.742Z,19.77
2023-01-30T08:50:14.022Z,6.85
2023-01-30T08:52:41.318Z,9.48
2023-01-30T08:55:09.478Z,12.13
2023-01-30T08:57:38.537Z,17.25
2023-01-30T09:00:07.599Z,15.25
2023-01-30T09:02:35.632Z,14.65
2023-01-30T09:05:03.160Z,12.98
2023-01-30T09:07:30.543Z,20.65
2023-01-30T09:09:57.929Z,14.40
2023-01-30T09:12:27.040Z,14.77
2023-01-30T09:14:55.683Z,15.50
2023-01-30T09:17:23.145Z,9.63
2023-01-30T09:19:50.400Z,20.23
2023-01-30T09:22:17.816Z,19.77
2023-01-30T09:24:45.261Z,26.58
2023-01-30T09:27:12.524Z,15.45
2023-01-30T09:29:39.900Z,9.95
2023-01-30T09:32:07.763Z,11.18
2023-01-30T09:34:35.415Z,17.88
2023-01-30T09:37:04.775Z,20.38
2023-01-30T09:39:32.459Z,16.25
2023-01-30T09:42:20.052Z,22.73
2023-01-30T09:45:08.906Z,19.55
2023-01-30T09:48:08.906Z,18.73
2023-01-30T09:51:00.306Z,20.33
2023-01-30T09:54:05.991Z,29.15
2023-01-30T09:56:34.134Z,13.77
2023-01-30T09:59:03.618Z,19.00
2023-01-30T10:02:09.562Z,20.38
2023-01-30T10:04:59.059Z,20.15
2023-01-30T10:07:37.867Z,20.17
2023-01-30T10:13:05.148Z,16.25
2023-01-30T10:15:51.736Z,23.40
2023-01-30T10:18:48.603Z,17.92
2023-01-30T10:21:18.641Z,18.52
2023-01-30T10:24:18.495Z,18.85
2023-01-30T10:26:47.056Z,27.48
2023-01-30T10:29:21.962Z,21.45
2023-01-30T10:31:56.016Z,30.13
2023-01-30T10:34:34.639Z,26.20
2023-01-30T10:37:18.148Z,16.00
2023-01-30T10:39:55.394Z,23.75
2023-01-30T10:42:34.827Z,18.70
2023-01-30T10:45:17.562Z,30.98
2023-01-30T10:48:04.861Z,27.02
2023-01-30T10:51:02.826Z,26.00
2023-01-30T10:54:13.451Z,27.88
2023-01-30T10:56:54.485Z,23.92
2023-01-30T10:59:32.523Z,19.10
2023-01-30T11:02:23.870Z,21.25
2023-01-30T11:04:59.890Z,26.85
2023-01-30T11:07:31.485Z,25.98
2023-01-30T11:10:00.101Z,19.90
2023-01-30T11:12:27.875Z,27.13
2023-01-30T11:14:56.513Z,14.40
2023-01-30T11:17:49.555Z,25.35
2023-01-30T11:20:20.370Z,32.40
2023-01-30T11:23:00.502Z,24.77
2023-01-30T11:25:28.078Z,28.95
2023-01-30T11:28:01.225Z,19.08
2023-01-30T11:30:34.098Z,15.10
2023-01-30T11:33:15.023Z,23.35
2023-01-30T11:35:55.765Z,24.92
2023-01-30T11:38:26.594Z,12.65
2023-01-30T11:41:12.999Z,25.27
2023-01-30T11:43:43.615Z,16.88
2023-01-30T11:46:16.276Z,23.17
2023-01-30T11:49:11.147Z,14.25
2023-01-30T11:51:45.087Z,38.65
2023-01-30T11:54:20.109Z,14.70
2023-01-30T11:56:53.543Z,15.43
2023-01-30T11:59:30.072Z,22.27
2023-01-30T12:02:16.895Z,15.48
2023-01-30T12:04:46.925Z,22.77
2023-01-30T12:07:21.276Z,24.90
2023-01-30T12:09:50.419Z,18.10
2023-01-30T12:12:33.372Z,23.50
2023-01-30T12:15:39.670Z,22.55
2023-01-30T12:18:30.219Z,25.58
2023-01-30T12:21:10.065Z,16.27
2023-01-30T12:23:44.971Z,20.17
2023-01-30T12:26:28.833Z,15.63
2023-01-30T12:29:28.088Z,22.73
2023-01-30T12:32:04.414Z,20.92
2023-01-30T12:34:34.602Z,19.23
2023-01-30T12:37:54.169Z,19.42
2023-01-30T12:43:20.931Z,14.13
2023-01-30T12:45:59.999Z,15.98
2023-01-30T12:52:07.886Z,15.82
2023-01-30T12:55:12.801Z,31.27
2023-01-30T12:57:53.334Z,27.63
2023-01-30T13:00:53.652Z,25.23
2023-01-30T13:03:53.383Z,16.40
2023-01-30T13:06:34.548Z,17.00
2023-01-30T13:09:37.741Z,12.85
2023-01-30T13:12:40.827Z,24.35
2023-01-30T13:15:41.250Z,18.63
2023-01-30T13:18:32.627Z,17.48
2023-01-30T13:21:23.454Z,26.02
2023-01-30T13:24:19.519Z,22.50
2023-01-30T13:26:49.147Z,17.23
2023-01-30T13:29:39.564Z,19.42
2023-01-30T13:33:01.451Z,15.00
2023-01-30T13:35:35.258Z,25.08
2023-01-30T13:38:07.619Z,20.25
2023-01-30T13:40:42.352Z,17.77
2023-01-30T13:43:16.292Z,10.95
2023-01-30T13:45:50.383Z,20.35
2023-01-30T13:48:43.824Z,17.17
2023-01-30T13:51:17.755Z,18.80
2023-01-30T13:58:30.848Z,19.15
2023-01-30T14:04:33.585Z,15.90
2023-01-30T14:07:28.868Z,31.85
2023-01-30T14:10:08.941Z,26.20
2023-01-30T14:12:52.070Z,25.40
2023-01-30T14:16:21.402Z,19.70
2023-01-30T14:18:56.388Z,20.75
2023-01-30T14:21:27.783Z,20.02
2023-01-30T14:24:10.560Z,17.25
2023-01-30T14:27:00.050Z,22.55
2023-01-30T14:29:42.986Z,11.70
2023-01-30T14:32:14.120Z,11.43
2023-01-30T14:35:00.923Z,15.68
2023-01-30T14:37:43.483Z,16.10
2023-01-30T14:43:26.846Z,13.75
2023-01-30T14:45:58.379Z,18.15
2023-01-30T14:48:37.712Z,22.85
2023-01-30T14:51:32.733Z,14.75
2023-01-30T14:54:12.532Z,18.75
2023-01-30T14:56:59.686Z,17.58
2023-01-30T14:59:59.367Z,24.50
2023-01-30T15:02:47.966Z,13.45
2023-01-30T15:05:49.429Z,15.32
2023-01-30T15:08:43.843Z,16.48
2023-01-30T15:11:27.070Z,17.42
2023-01-30T15:14:38.798Z,23.50
2023-01-30T15:17:42.367Z,23.40
2023-01-30T15:20:34.922Z,16.00
2023-01-30T15:23:23.762Z,19.88
2023-01-30T15:26:10.314Z,25.05
2023-01-30T15:28:55.785Z,19.83
2023-01-30T15:34:22.317Z,16.45
2023-01-30T15:36:55.569Z,17.13
2023-01-30T15:39:35.307Z,20.42
2023-01-30T15:45:14.175Z,22.13
2023-01-30T15:48:24.025Z,22.20
2023-01-30T15:51:20.410Z,16.88
2023-01-30T15:53:58.674Z,23.73
2023-01-30T15:56:40.835Z,29.45
2023-01-30T15:59:21.106Z,18.33
2023-01-30T16:02:16.011Z,20.30
2023-01-30T16:04:46.193Z,28.83
2023-01-30T16:07:28.124Z,13.50
2023-01-30T16:10:08.281Z,25.52
2023-01-30T16:12:41.085Z,24.75
2023-01-30T16:15:27.103Z,27.88
2023-01-30T16:18:13.265Z,24.92
2023-01-30T16:21:11.768Z,17.63
2023-01-30T16:23:51.120Z,13.75
2023-01-30T16:26:21.738Z,15.35
2023-01-30T16:28:51.177Z,27.17
2023-01-30T16:31:19.106Z,38.28
2023-01-30T16:33:53.112Z,22.92
2023-01-30T16:36:20.429Z,33.15
2023-01-30T16:38:49.348Z,46.72
2023-01-30T16:41:42.816Z,20.20
2023-01-30T16:44:21.759Z,32.60
2023-01-30T16:46:50.720Z,20.42
2023-01-30T16:49:36.752Z,30.35
2023-01-30T16:52:24.632Z,22.25
2023-01-30T16:57:40.212Z,24.67
2023-01-30T17:00:25.355Z,23.55
2023-01-30T17:03:01.737Z,20.70
2023-01-30T17:05:36.739Z,33.70
2023-01-30T17:08:04.359Z,30.85
2023-01-30T17:10:37.815Z,24.38
2023-01-30T17:13:27.536Z,32.42
2023-01-30T17:15:55.899Z,44.90
2023-01-30T17:18:23.228Z,83.78
2023-01-30T17:20:51.367Z,52.92
2023-01-30T17:23:21.624Z,89.57
2023-01-30T17:25:49.359Z,33.72
2023-01-30T17:28:21.288Z,27.95
2023-01-30T17:30:50.325Z,38.33
2023-01-30T17:33:18.363Z,23.45
2023-01-30T17:35:45.963Z,42.08
2023-01-30T17:38:13.366Z,30.00
2023-01-30T17:40:42.933Z,30.70
2023-01-30T17:43:12.121Z,29.88
2023-01-30T17:45:39.619Z,23.52
2023-01-30T17:48:07.499Z,31.63
2023-01-30T17:50:36.960Z,34.78
2023-01-30T17:53:04.879Z,26.40
2023-01-30T17:55:34.292Z,26.75
2023-01-30T17:58:01.666Z,23.02
2023-01-30T18:00:29.313Z,29.63
2023-01-30T18:02:56.598Z,33.05
2023-01-30T18:05:24.343Z,41.88
2023-01-30T18:07:51.638Z,40.17
2023-01-30T18:10:20.310Z,25.88
2023-01-30T18:12:47.881Z,49.97
2023-01-30T18:15:16.139Z,26.60
2023-01-30T18:17:48.793Z,29.55
2023-01-30T18:20:19.639Z,27.55
2023-01-30T18:22:47.410Z,32.92
2023-01-30T18:25:15.596Z,25.38
2023-01-30T18:27:44.533Z,30.10
2023-01-30T18:30:15.874Z,33.97
2023-01-30T18:32:52.437Z,35.13
2023-01-30T18:35:22.094Z,36.77
2023-01-30T18:37:50.017Z,31.10
2023-01-30T18:40:18.832Z,28.73
2023-01-30T18:42:46.992Z,39.33
2023-01-30T18:45:14.747Z,28.15
2023-01-30T18:47:42.066Z,45.72
2023-01-30T18:50:09.977Z,31.38
2023-01-30T18:52:37.428Z,37.17
2023-01-30T18:55:05.078Z,27.92
2023-01-30T18:57:32.345Z,38.83
2023-01-30T18:59:59.721Z,34.10
2023-01-30T19:02:27.136Z,52.08
2023-01-30T19:04:54.932Z,38.83
2023-01-30T19:07:22.297Z,41.03
2023-01-30T19:09:49.746Z,52.22
2023-01-30T19:12:36.075Z,38.35
2023-01-30T19:15:03.612Z,46.03
2023-01-30T19:17:32.704Z,90.30
2023-01-30T19:20:02.051Z,35.83
2023-01-30T19:22:29.485Z,39.25
2023-01-30T19:24:56.781Z,44.70
2023-01-30T19:27:26.130Z,32.30
2023-01-30T19:29:53.489Z,38.10
2023-01-30T19:32:20.877Z,32.40
2023-01-30T19:34:49.945Z,44.72
2023-01-30T19:37:18.122Z,31.30
2023-01-30T19:39:45.437Z,37.33
2023-01-30T19:42:12.967Z,37.20
2023-01-30T19:44:40.995Z,22.90
2023-01-30T19:47:08.811Z,25.10
2023-01-30T19:49:36.640Z,33.90
2023-01-30T19:52:04.258Z,38.67
2023-01-30T19:54:31.562Z,31.75
2023-01-30T19:56:59.989Z,30.92
2023-01-30T19:59:30.126Z,42.53
2023-01-30T20:01:57.690Z,26.38
2023-01-30T20:04:25.165Z,37.15
2023-01-30T20:06:52.659Z,33.95
2023-01-30T20:09:20.473Z,31.67
2023-01-30T20:11:48.194Z,31.58
2023-01-30T20:14:15.599Z,31.85
2023-01-30T20:16:42.881Z,30.65
2023-01-30T20:19:16.265Z,33.15
2023-01-30T20:21:44.389Z,26.77
2023-01-30T20:24:15.861Z,26.38
2023-01-30T20:26:45.307Z,47.80
2023-01-30T20:29:16.973Z,53.83
2023-01-30T20:31:44.610Z,33.13
2023-01-30T20:34:13.709Z,31.65
2023-01-30T20:36:41.312Z,35.17
2023-01-30T20:39:08.834Z,33.78
2023-01-30T20:41:37.737Z,36.17
2023-01-30T20:44:07.929Z,45.95
2023-01-30T20:46:42.479Z,66.63
2023-01-30T20:49:18.530Z,50.42
2023-01-30T20:51:47.108Z,32.03
2023-01-30T20:54:15.427Z,42.30
2023-01-30T20:56:52.407Z,32.75
2023-01-30T20:59:27.176Z,23.20
2023-01-30T21:01:55.336Z,24.95
2023-01-30T21:04:24.419Z,32.65
2023-01-30T21:06:51.984Z,30.08
2023-01-30T21:09:22.054Z,26.90
2023-01-30T21:11:53.149Z,29.75
2023-01-30T21:14:20.678Z,26.50
2023-01-30T21:16:48.728Z,29.50
2023-01-30T21:19:17.582Z,42.83
2023-01-30T21:21:50.773Z,26.27
2023-01-30T21:24:21.617Z,30.45
2023-01-30T21:26:49.481Z,43.50
2023-01-30T21:29:20.151Z,32.03
2023-01-30T21:31:47.724Z,20.85
2023-01-30T21:34:15.447Z,22.92
2023-01-30T21:36:42.968Z,28.83
2023-01-30T21:39:31.727Z,32.67
2023-01-30T21:42:17.649Z,32.90
2023-01-30T21:44:45.360Z,48.50
2023-01-30T21:47:12.594Z,73.43
2023-01-30T21:49:41.807Z,37.40
2023-01-30T21:52:09.519Z,28.15
2023-01-30T21:54:37.748Z,30.00
2023-01-30T21:57:05.119Z,34.50
2023-01-30T21:59:33.234Z,45.42
2023-01-30T22:02:00.565Z,30.55
2023-01-30T22:04:27.845Z,28.45
2023-01-30T22:06:55.623Z,25.67
2023-01-30T22:09:23.235Z,34.50
2023-01-30T22:11:51.205Z,24.90
2023-01-30T22:14:18.690Z,39.97
2023-01-30T22:16:46.142Z,32.58
2023-01-30T22:19:14.351Z,31.15
2023-01-30T22:21:41.990Z,33.67
2023-01-30T22:24:11.729Z,32.72
2023-01-30T22:26:39.618Z,34.13
2023-01-30T22:29:07.350Z,36.15
2023-01-30T22:31:37.383Z,29.95
2023-01-30T22:34:05.039Z,39.85
2023-01-30T22:36:34.847Z,24.55
2023-01-30T22:39:02.700Z,35.75
2023-01-30T22:41:34.768Z,28.67
2023-01-30T22:44:04.694Z,19.95
2023-01-30T22:46:34.551Z,44.42
2023-01-30T22:49:03.773Z,27.05
2023-01-30T22:51:36.963Z,37.03
2023-01-30T22:54:07.548Z,27.08
2023-01-30T22:56:41.631Z,25.95
2023-01-30T22:59:09.577Z,29.10
2023-01-30T23:01:39.618Z,37.45
2023-01-30T23:04:14.355Z,23.25
2023-01-30T23:06:42.260Z,33.25
2023-01-30T23:09:11.616Z,30.52
2023-01-30T23:12:13.016Z,28.60
2023-01-30T23:14:42.226Z,19.35
2023-01-30T23:17:28.669Z,27.95
2023-01-30T23:19:56.758Z,21.45
2023-01-30T23:22:24.767Z,36.15
2023-01-30T23:24:52.450Z,42.53
2023-01-30T23:27:20.730Z,22.08
2023-01-30T23:29:48.169Z,17.35
2023-01-30T23:32:19.076Z,17.00
2023-01-30T23:34:47.667Z,19.27
2023-01-30T23:37:15.381Z,27.10
2023-01-30T23:39:42.720Z,31.20
2023-01-30T23:42:10.062Z,13.02
2023-01-30T23:44:37.623Z,30.60
2023-01-30T23:47:04.990Z,22.80
2023-01-30T23:49:32.371Z,21.45
2023-01-30T23:52:00.113Z,28.23
2023-01-30T23:54:27.504Z,23.30
2023-01-30T23:56:55.965Z,32.92
2023-01-30T23:59:23.229Z,32.75
